createdAt,value
2019-03-08T00:01:18.768Z,98755.48
2019-03-08T00:03:25.507Z,98754.55
2019-03-08T00:05:32.159Z,98752.73
2019-03-08T00:07:38.842Z,98753.17
2019-03-08T00:09:45.517Z,98758.02
2019-03-08T00:11:52.352Z,98765.05
2019-03-08T00:13:59.125Z,98769.44
2019-03-08T00:16:06.151Z,98770.75
2019-03-08T00:18:12.883Z,98767.69
2019-03-08T00:20:19.566Z,98768.09
2019-03-08T00:22:26.235Z,98767.14
2019-03-08T00:24:33.008Z,98768.41
2019-03-08T00:26:39.971Z,98760.92
2019-03-08T00:28:46.641Z,98762.69
2019-03-08T00:30:54.306Z,98764.48
2019-03-08T00:33:01.006Z,98763.71
2019-03-08T00:35:10.039Z,98771.74
2019-03-08T00:37:15.918Z,98773.59
2019-03-08T00:39:22.479Z,98778.12
2019-03-08T00:41:29.877Z,98782.20
2019-03-08T00:43:36.613Z,98784.52
2019-03-08T00:45:43.299Z,98785.91
2019-03-08T00:47:49.981Z,98789.05
2019-03-08T00:49:56.643Z,98785.18
2019-03-08T00:52:03.322Z,98790.54
2019-03-08T00:54:10.033Z,98788.41
2019-03-08T00:56:16.770Z,98791.97
2019-03-08T00:58:23.445Z,98790.70
2019-03-08T01:00:30.104Z,98795.48
2019-03-08T01:02:36.774Z,98802.94
2019-03-08T01:04:43.528Z,98810.37
2019-03-08T01:06:50.193Z,98812.53
2019-03-08T01:08:57.150Z,98813.01
2019-03-08T01:11:03.904Z,98820.48
2019-03-08T01:13:10.648Z,98820.93
2019-03-08T01:15:18.973Z,98822.69
2019-03-08T01:17:25.657Z,98826.20
2019-03-08T01:19:32.310Z,98820.95
2019-03-08T01:21:38.987Z,98823.15
2019-03-08T01:23:46.749Z,98823.64
2019-03-08T01:25:53.406Z,98825.86
2019-03-08T01:28:11.693Z,98829.41
2019-03-08T01:30:18.448Z,98838.66
2019-03-08T01:32:25.107Z,98836.52
2019-03-08T01:34:31.763Z,98839.59
2019-03-08T01:36:38.454Z,98836.56
2019-03-08T01:38:45.118Z,98832.16
2019-03-08T01:40:51.843Z,98844.91
2019-03-08T01:42:58.617Z,98838.33
2019-03-08T01:45:08.142Z,98842.72
2019-03-08T01:47:14.807Z,98836.58
2019-03-08T01:49:21.498Z,98840.97
2019-03-08T01:51:28.155Z,98839.61
2019-03-08T01:53:34.819Z,98839.17
2019-03-08T01:55:41.510Z,98840.52
2019-03-08T01:57:49.189Z,98844.04
2019-03-08T01:59:55.848Z,98840.09
2019-03-08T02:02:02.551Z,98840.57
2019-03-08T02:04:09.199Z,98838.81
2019-03-08T02:06:15.851Z,98841.92
2019-03-08T02:08:22.720Z,98847.19
2019-03-08T02:10:29.455Z,98841.92
2019-03-08T02:12:36.176Z,98852.00
2019-03-08T02:14:42.937Z,98855.98
2019-03-08T02:16:49.668Z,98854.22
2019-03-08T02:18:56.403Z,98853.34
2019-03-08T02:21:06.819Z,98856.85
2019-03-08T02:23:11.428Z,98856.41
2019-03-08T02:25:18.190Z,98855.56
2019-03-08T02:27:25.963Z,98855.97
2019-03-08T02:29:32.631Z,98853.34
2019-03-08T02:31:39.354Z,98858.61
2019-03-08T02:33:46.039Z,98858.17
2019-03-08T02:35:52.700Z,98862.11
2019-03-08T02:37:59.425Z,98861.67
2019-03-08T02:40:34.109Z,98864.30
2019-03-08T02:42:40.933Z,98860.82
2019-03-08T02:44:47.664Z,98873.53
2019-03-08T02:46:54.420Z,98873.53
2019-03-08T02:49:01.094Z,98870.88
2019-03-08T02:51:07.815Z,98868.25
2019-03-08T02:53:14.506Z,98873.52
2019-03-08T02:55:21.240Z,98866.06
2019-03-08T02:57:28.154Z,98868.23
2019-03-08T02:59:34.907Z,98863.44
2019-03-08T03:01:41.564Z,98866.50
2019-03-08T03:03:48.230Z,98866.92
2019-03-08T03:05:54.906Z,98868.72
2019-03-08T03:08:01.557Z,98871.78
2019-03-08T03:10:10.313Z,98872.21
2019-03-08T03:12:17.284Z,98871.33
2019-03-08T03:14:23.940Z,98866.09
2019-03-08T03:16:30.597Z,98865.20
2019-03-08T03:18:37.282Z,98872.64
2019-03-08T03:20:43.925Z,98871.35
2019-03-08T03:22:50.590Z,98868.27
2019-03-08T03:24:57.290Z,98870.02
2019-03-08T03:27:04.932Z,98871.33
2019-03-08T03:29:11.652Z,98870.88
2019-03-08T03:31:18.344Z,98882.71
2019-03-08T03:33:25.071Z,98885.34
2019-03-08T03:35:31.723Z,98886.23
2019-03-08T03:37:38.396Z,98881.83
2019-03-08T03:39:45.395Z,98883.16
2019-03-08T03:41:52.058Z,98886.64
2019-03-08T03:43:58.721Z,98886.64
2019-03-08T03:46:05.378Z,98887.48
2019-03-08T03:48:13.032Z,98880.45
2019-03-08T03:50:19.741Z,98881.77
2019-03-08T03:52:26.445Z,98885.27
2019-03-08T03:54:33.285Z,98886.13
2019-03-08T03:56:39.965Z,98890.08
2019-03-08T03:58:46.694Z,98892.25
2019-03-08T04:00:53.412Z,98894.42
2019-03-08T04:03:00.084Z,98893.97
2019-03-08T04:05:08.335Z,98887.40
2019-03-08T04:07:14.987Z,98897.45
2019-03-08T04:09:21.840Z,98895.27
2019-03-08T04:11:28.511Z,98895.26
2019-03-08T04:13:35.139Z,98897.86
2019-03-08T04:15:41.826Z,98893.45
2019-03-08T04:17:48.483Z,98895.23
2019-03-08T04:19:55.146Z,98900.48
2019-03-08T04:22:02.017Z,98903.54
2019-03-08T04:24:08.653Z,98900.91
2019-03-08T04:26:15.314Z,98903.50
2019-03-08T04:28:22.066Z,98911.80
2019-03-08T04:30:28.719Z,98914.86
2019-03-08T04:32:35.387Z,98917.47
2019-03-08T04:34:42.055Z,98913.96
2019-03-08T04:36:48.988Z,98912.20
2019-03-08T04:38:55.714Z,98909.57
2019-03-08T04:41:02.387Z,98916.14
2019-03-08T04:43:09.043Z,98921.82
2019-03-08T04:45:17.198Z,98919.59
2019-03-08T04:47:23.879Z,98918.28
2019-03-08T04:49:30.568Z,98926.61
2019-03-08T04:51:37.217Z,98926.19
2019-03-08T04:53:43.959Z,98922.25
2019-03-08T04:55:50.616Z,98914.81
2019-03-08T04:57:57.283Z,98912.19
2019-03-08T05:00:05.030Z,98917.02
2019-03-08T05:02:11.983Z,98920.55
2019-03-08T05:04:18.916Z,98916.59
2019-03-08T05:06:25.592Z,98918.80
2019-03-08T05:08:32.260Z,98921.86
2019-03-08T05:10:38.934Z,98921.84
2019-03-08T05:12:45.731Z,98935.44
2019-03-08T05:14:52.448Z,98928.45
2019-03-08T05:16:59.180Z,98927.55
2019-03-08T05:19:05.937Z,98923.60
2019-03-08T05:21:12.585Z,98918.81
2019-03-08T05:23:19.252Z,98918.39
2019-03-08T05:25:25.936Z,98916.22
2019-03-08T05:27:32.675Z,98915.36
2019-03-08T05:29:39.322Z,98917.09
2019-03-08T05:31:46.197Z,98914.50
2019-03-08T05:33:52.855Z,98910.59
2019-03-08T05:35:59.521Z,98913.80
2019-03-08T05:38:06.205Z,98918.66
2019-03-08T05:40:15.954Z,98915.57
2019-03-08T05:42:22.615Z,98917.30
2019-03-08T05:44:29.307Z,98911.39
2019-03-08T05:46:37.240Z,98907.44
2019-03-08T05:48:43.984Z,98907.36
2019-03-08T05:50:50.744Z,98905.64
2019-03-08T05:52:57.404Z,98904.19
2019-03-08T05:55:09.394Z,98897.64
2019-03-08T05:57:17.076Z,98891.67
2019-03-08T05:59:23.728Z,98882.30
2019-03-08T06:01:30.676Z,98880.30
2019-03-08T06:03:37.378Z,98882.88
2019-03-08T06:05:44.045Z,98884.45
2019-03-08T06:07:50.765Z,98882.81
2019-03-08T06:09:57.459Z,98890.92
2019-03-08T06:12:04.116Z,98883.94
2019-03-08T06:14:11.120Z,98896.58
2019-03-08T06:16:17.818Z,98898.61
2019-03-08T06:18:24.527Z,98895.28
2019-03-08T06:20:31.189Z,98887.58
2019-03-08T06:22:37.943Z,98890.28
2019-03-08T06:24:44.605Z,98890.15
2019-03-08T06:26:51.256Z,98884.94
2019-03-08T06:28:58.942Z,98889.25
2019-03-08T06:31:05.604Z,98896.13
2019-03-08T06:33:12.341Z,98892.20
2019-03-08T06:35:20.024Z,98900.59
2019-03-08T06:37:26.670Z,98893.91
2019-03-08T06:39:33.390Z,98896.22
2019-03-08T06:41:40.257Z,98889.38
2019-03-08T06:43:46.914Z,98887.03
2019-03-08T06:45:53.581Z,98891.67
2019-03-08T06:48:00.252Z,98890.13
2019-03-08T06:50:10.911Z,98892.84
2019-03-08T06:52:17.561Z,98896.33
2019-03-08T06:54:24.252Z,98896.52
2019-03-08T06:56:31.174Z,98893.72
2019-03-08T06:58:39.469Z,98891.02
2019-03-08T07:00:47.820Z,98887.83
2019-03-08T07:02:54.533Z,98891.26
2019-03-08T07:05:01.293Z,98888.41
2019-03-08T07:07:08.040Z,98884.52
2019-03-08T07:09:14.691Z,98888.18
2019-03-08T07:11:21.357Z,98884.28
2019-03-08T07:13:28.215Z,98884.30
2019-03-08T07:15:34.882Z,98883.89
2019-03-08T07:17:41.539Z,98887.44
2019-03-08T07:20:01.872Z,98878.19
2019-03-08T07:22:10.476Z,98879.15
2019-03-08T07:24:45.484Z,98869.88
2019-03-08T07:26:56.503Z,98868.64
2019-03-08T07:29:04.788Z,98879.53
2019-03-08T07:31:13.923Z,98863.02
2019-03-08T07:33:22.251Z,98871.11
2019-03-08T07:35:36.762Z,98866.34
2019-03-08T07:37:46.069Z,98869.27
2019-03-08T07:40:06.121Z,98867.66
2019-03-08T07:42:20.146Z,98869.98
2019-03-08T07:44:31.386Z,98871.42
2019-03-08T07:46:37.847Z,98859.58
2019-03-08T07:48:46.147Z,98869.35
2019-03-08T07:50:52.577Z,98868.36
2019-03-08T07:53:17.018Z,98868.36
2019-03-08T07:55:25.305Z,98869.49
2019-03-08T07:57:42.802Z,98865.06
2019-03-08T07:59:58.042Z,98871.79
2019-03-08T08:02:06.351Z,98870.98
2019-03-08T08:04:30.585Z,98875.92
2019-03-08T08:06:44.934Z,98871.01
2019-03-08T08:08:59.194Z,98887.55
2019-03-08T08:11:23.420Z,98885.12
2019-03-08T08:13:31.754Z,98886.16
2019-03-08T08:15:56.101Z,98884.88
2019-03-08T08:18:07.120Z,98882.24
2019-03-08T08:20:24.204Z,98881.16
2019-03-08T08:22:38.576Z,98883.24
2019-03-08T08:24:45.008Z,98884.45
2019-03-08T08:26:56.195Z,98880.34
2019-03-08T08:29:20.495Z,98863.90
2019-03-08T08:31:28.863Z,98878.07
2019-03-08T08:33:49.274Z,98874.06
2019-03-08T08:35:55.699Z,98874.77
2019-03-08T08:38:06.715Z,98875.81
2019-03-08T08:40:22.294Z,98872.11
2019-03-08T08:42:46.569Z,98875.33
2019-03-08T08:45:06.954Z,98871.59
2019-03-08T08:47:18.435Z,98876.57
2019-03-08T08:49:32.735Z,98870.78
2019-03-08T08:51:54.049Z,98889.63
2019-03-08T08:54:12.397Z,98884.38
2019-03-08T08:56:26.503Z,98880.97
2019-03-08T08:58:34.789Z,98869.48
2019-03-08T09:00:43.128Z,98871.14
2019-03-08T09:03:07.258Z,98871.88
2019-03-08T09:05:21.685Z,98856.95
2019-03-08T09:07:30.114Z,98859.42
2019-03-08T09:09:53.548Z,98852.63
2019-03-08T09:12:01.829Z,98849.05
2019-03-08T09:14:10.172Z,98863.91
2019-03-08T09:16:18.470Z,98849.87
2019-03-08T09:18:29.483Z,98843.81
2019-03-08T09:20:51.056Z,98847.58
2019-03-08T09:23:15.684Z,98846.00
2019-03-08T09:25:24.838Z,98832.86
2019-03-08T09:27:35.863Z,98847.91
2019-03-08T09:29:42.563Z,98838.14
2019-03-08T09:31:49.014Z,98838.49
2019-03-08T09:33:57.337Z,98832.44
2019-03-08T09:36:05.649Z,98837.00
2019-03-08T09:38:30.047Z,98840.34
2019-03-08T09:40:39.223Z,98837.69
2019-03-08T09:43:00.405Z,98829.20
2019-03-08T09:45:17.664Z,98838.30
2019-03-08T09:47:28.736Z,98827.92
2019-03-08T09:49:48.750Z,98818.71
2019-03-08T09:51:58.147Z,98833.77
2019-03-08T09:54:06.878Z,98832.50
2019-03-08T09:56:15.277Z,98832.22
2019-03-08T09:58:24.664Z,98836.08
2019-03-08T10:00:32.980Z,98837.41
2019-03-08T10:02:41.294Z,98829.61
2019-03-08T10:05:05.719Z,98835.17
2019-03-08T10:07:26.149Z,98829.16
2019-03-08T10:09:35.443Z,98842.78
2019-03-08T10:11:46.444Z,98837.82
2019-03-08T10:13:57.731Z,98838.83
2019-03-08T10:16:08.923Z,98825.77
2019-03-08T10:18:20.181Z,98825.84
2019-03-08T10:20:37.612Z,98824.83
2019-03-08T10:22:48.856Z,98824.49
2019-03-08T10:25:13.436Z,98822.34
2019-03-08T10:27:38.480Z,98813.15
2019-03-08T10:29:51.015Z,98818.71
2019-03-08T10:31:59.317Z,98828.63
2019-03-08T10:34:11.774Z,98824.96
2019-03-08T10:36:23.349Z,98824.96
2019-03-08T10:38:43.417Z,98835.66
2019-03-08T10:41:06.522Z,98829.25
2019-03-08T10:43:20.555Z,98828.24
2019-03-08T10:45:28.852Z,98824.30
2019-03-08T10:47:44.148Z,98821.58
2019-03-08T10:49:55.665Z,98819.55
2019-03-08T10:52:05.614Z,98818.16
2019-03-08T10:54:16.975Z,98805.33
2019-03-08T10:56:28.230Z,98801.38
2019-03-08T10:58:39.489Z,98801.43
2019-03-08T11:00:53.814Z,98798.91
2019-03-08T11:03:02.173Z,98791.21
2019-03-08T11:05:11.952Z,98801.81
2019-03-08T11:07:20.286Z,98796.25
2019-03-08T11:09:45.039Z,98800.38
2019-03-08T11:12:05.461Z,98804.98
2019-03-08T11:14:11.949Z,98817.48
2019-03-08T11:16:36.369Z,98810.05
2019-03-08T11:18:42.791Z,98800.08
2019-03-08T11:21:05.989Z,98807.56
2019-03-08T11:23:12.413Z,98810.09
2019-03-08T11:25:34.967Z,98822.09
2019-03-08T11:27:46.868Z,98821.27
2019-03-08T11:29:53.351Z,98806.36
2019-03-08T11:32:23.017Z,98808.77
2019-03-08T11:34:41.709Z,98803.12
2019-03-08T11:36:50.006Z,98802.75
2019-03-08T11:39:05.181Z,98802.43
2019-03-08T11:41:29.890Z,98797.11
2019-03-08T11:43:41.129Z,98804.59
2019-03-08T11:46:05.675Z,98811.51
2019-03-08T11:48:12.123Z,98809.77
2019-03-08T11:50:23.243Z,98812.00
2019-03-08T11:52:37.409Z,98808.16
2019-03-08T11:54:51.852Z,98808.06
2019-03-08T11:57:02.851Z,98811.82
2019-03-08T11:59:10.386Z,98805.91
2019-03-08T12:03:35.748Z,98813.30
2019-03-08T12:05:45.029Z,98814.63
2019-03-08T12:07:59.042Z,98801.25
2019-03-08T12:10:11.469Z,98811.36
2019-03-08T12:12:19.775Z,98822.82
2019-03-08T12:14:28.079Z,98806.00
2019-03-08T12:16:34.554Z,98807.79
2019-03-08T12:18:45.821Z,98811.73
2019-03-08T12:21:08.967Z,98815.54
2019-03-08T12:23:17.303Z,98811.14
2019-03-08T12:25:32.587Z,98804.17
2019-03-08T12:27:44.989Z,98801.43
2019-03-08T12:29:53.324Z,98807.08
2019-03-08T12:32:04.681Z,98819.60
2019-03-08T12:34:12.980Z,98818.31
2019-03-08T12:36:37.115Z,98817.06
2019-03-08T12:38:45.404Z,98815.56
2019-03-08T12:40:53.719Z,98808.70
2019-03-08T12:43:08.305Z,98825.07
2019-03-08T12:45:14.298Z,98822.86
2019-03-08T12:47:23.638Z,98819.63
2019-03-08T12:49:31.086Z,98815.14
2019-03-08T12:51:40.472Z,98815.41
2019-03-08T12:53:48.789Z,98813.67
2019-03-08T12:56:01.273Z,98819.32
2019-03-08T12:58:07.692Z,98813.45
2019-03-08T13:00:19.901Z,98812.34
2019-03-08T13:02:28.332Z,98820.37
2019-03-08T13:04:40.525Z,98815.95
2019-03-08T13:06:58.823Z,98805.52
2019-03-08T13:09:11.539Z,98818.55
2019-03-08T13:11:18.198Z,98828.14
2019-03-08T13:13:24.862Z,98826.27
2019-03-08T13:15:31.621Z,98817.96
2019-03-08T13:17:39.820Z,98825.59
2019-03-08T13:19:46.477Z,98832.41
2019-03-08T13:21:53.232Z,98835.73
2019-03-08T13:23:59.889Z,98842.19
2019-03-08T13:26:06.727Z,98846.38
2019-03-08T13:28:13.404Z,98849.16
2019-03-08T13:30:25.289Z,98849.75
2019-03-08T13:32:31.947Z,98852.47
2019-03-08T13:34:38.638Z,98847.30
2019-03-08T13:36:45.364Z,98853.55
2019-03-08T13:38:52.096Z,98862.48
2019-03-08T13:40:59.039Z,98862.15
2019-03-08T13:43:05.682Z,98866.09
2019-03-08T13:45:21.654Z,98871.83
2019-03-08T13:47:28.426Z,98874.58
2019-03-08T13:49:35.152Z,98879.04
2019-03-08T13:51:41.883Z,98873.44
2019-03-08T13:53:49.257Z,98878.08
2019-03-08T13:55:55.984Z,98886.58
2019-03-08T13:58:02.653Z,98873.83
2019-03-08T14:00:17.949Z,98880.16
2019-03-08T14:02:24.686Z,98882.50
2019-03-08T14:04:31.416Z,98889.70
2019-03-08T14:06:38.177Z,98897.27
2019-03-08T14:08:44.835Z,98887.16
2019-03-08T14:10:51.579Z,98902.59
2019-03-08T14:12:58.598Z,98888.06
2019-03-08T14:15:08.825Z,98903.66
2019-03-08T14:17:15.558Z,98898.86
2019-03-08T14:19:22.314Z,98901.09
2019-03-08T14:21:28.990Z,98904.93
2019-03-08T14:23:35.631Z,98901.74
2019-03-08T14:25:42.384Z,98901.32
2019-03-08T14:27:49.291Z,98906.20
2019-03-08T14:29:59.135Z,98903.07
2019-03-08T14:32:04.611Z,98910.09
2019-03-08T14:34:16.808Z,98904.64
2019-03-08T14:36:19.778Z,98914.33
2019-03-08T14:38:31.497Z,98907.66
2019-03-08T14:40:44.964Z,98915.56
2019-03-08T14:42:58.994Z,98919.91
2019-03-08T14:45:10.344Z,98924.67
2019-03-08T14:47:18.626Z,98919.26
2019-03-08T14:49:25.380Z,98918.80
2019-03-08T14:51:32.070Z,98926.09
2019-03-08T14:53:38.741Z,98925.92
2019-03-08T14:55:45.472Z,98919.59
2019-03-08T14:57:55.352Z,98923.81
2019-03-08T15:00:00.520Z,98922.69
2019-03-08T15:02:07.253Z,98927.74
2019-03-08T15:04:14.133Z,98938.45
2019-03-08T15:06:20.812Z,98948.66
2019-03-08T15:08:28.455Z,98942.48
2019-03-08T15:10:39.454Z,98945.56
2019-03-08T15:12:49.086Z,98947.74
2019-03-08T15:14:51.992Z,98956.94
2019-03-08T15:16:58.752Z,98956.12
2019-03-08T15:19:06.410Z,98965.41
2019-03-08T15:21:14.427Z,98968.94
2019-03-08T15:23:21.117Z,98960.59
2019-03-08T15:25:31.259Z,98963.73
2019-03-08T15:27:36.232Z,98952.75
2019-03-08T15:29:42.988Z,98963.33
2019-03-08T15:31:49.657Z,98960.75
2019-03-08T15:33:56.298Z,98964.33
2019-03-08T15:36:03.257Z,98973.66
2019-03-08T15:38:10.206Z,98964.94
2019-03-08T15:40:23.224Z,98975.55
2019-03-08T15:42:29.999Z,98966.75
2019-03-08T15:44:36.715Z,98975.16
2019-03-08T15:46:43.473Z,98975.20
2019-03-08T15:48:53.147Z,98973.91
2019-03-08T15:50:59.535Z,98972.13
2019-03-08T15:53:06.537Z,98979.22
2019-03-08T15:55:13.233Z,98981.05
2019-03-08T15:57:20.662Z,98980.66
2019-03-08T15:59:27.395Z,98983.80
2019-03-08T16:01:34.186Z,98988.77
2019-03-08T16:03:40.922Z,98982.21
2019-03-08T16:05:47.662Z,98996.80
2019-03-08T16:07:57.685Z,98998.18
2019-03-08T16:10:02.791Z,98993.35
2019-03-08T16:12:10.648Z,98990.77
2019-03-08T16:14:17.415Z,98995.80
2019-03-08T16:16:24.078Z,98999.91
2019-03-08T16:18:31.759Z,98999.18
2019-03-08T16:20:38.619Z,99014.64
2019-03-08T16:22:45.393Z,99016.91
2019-03-08T16:24:52.326Z,99014.77
2019-03-08T16:27:02.403Z,99021.81
2019-03-08T16:29:07.375Z,99021.75
2019-03-08T16:31:25.670Z,99029.67
2019-03-08T16:33:40.648Z,99035.82
2019-03-08T16:35:49.091Z,99033.63
2019-03-08T16:38:10.077Z,99036.25
2019-03-08T16:40:17.929Z,99037.11
2019-03-08T16:42:34.864Z,99041.85
2019-03-08T16:44:48.827Z,99048.91
2019-03-08T16:46:56.665Z,99057.73
2019-03-08T16:49:10.724Z,99064.80
2019-03-08T16:51:20.295Z,99067.50
2019-03-08T16:53:38.249Z,99067.48
2019-03-08T16:55:49.465Z,99068.83
2019-03-08T16:58:13.090Z,99069.72
2019-03-08T17:00:30.114Z,99069.28
2019-03-08T17:02:44.413Z,99074.56
2019-03-08T17:04:55.396Z,99072.34
2019-03-08T17:07:15.491Z,99091.24
2019-03-08T17:09:35.584Z,99092.11
2019-03-08T17:11:43.891Z,99097.86
2019-03-08T17:13:55.193Z,99097.48
2019-03-08T17:16:10.677Z,99106.78
2019-03-08T17:18:24.077Z,99110.78
2019-03-08T17:20:35.394Z,99105.98
2019-03-08T17:22:45.247Z,99108.64
2019-03-08T17:24:53.549Z,99110.83
2019-03-08T17:27:07.961Z,99120.54
2019-03-08T17:29:16.270Z,99111.30
2019-03-08T17:31:22.795Z,99124.50
2019-03-08T17:33:31.918Z,99126.70
2019-03-08T17:35:42.149Z,99130.24
2019-03-08T17:37:55.997Z,99133.35
2019-03-08T17:40:07.038Z,99129.39
2019-03-08T17:42:28.512Z,99134.66
2019-03-08T17:44:36.813Z,99138.17
2019-03-08T17:47:03.375Z,99137.29
2019-03-08T17:49:14.446Z,99151.84
2019-03-08T17:51:25.348Z,99191.07
2019-03-08T17:53:36.631Z,99198.29
2019-03-08T17:55:53.710Z,99217.92
2019-03-08T17:58:11.789Z,99224.22
2019-03-08T18:00:30.363Z,99236.60
2019-03-08T18:02:39.249Z,99244.56
2019-03-08T18:04:47.546Z,99242.41
2019-03-08T18:06:57.040Z,99238.90
2019-03-08T18:09:22.202Z,99236.30
2019-03-08T18:11:33.440Z,99243.77
2019-03-08T18:13:45.697Z,99244.25
2019-03-08T18:15:59.682Z,99250.84
2019-03-08T18:18:24.843Z,99250.41
2019-03-08T18:20:38.867Z,99242.05
2019-03-08T18:22:50.213Z,99248.64
2019-03-08T18:25:07.449Z,99259.63
2019-03-08T18:27:31.683Z,99264.47
2019-03-08T18:29:45.935Z,99257.88
2019-03-08T18:32:00.067Z,99264.03
2019-03-08T18:34:06.527Z,99267.98
2019-03-08T18:36:14.794Z,99277.66
2019-03-08T18:38:40.851Z,99278.56
2019-03-08T18:40:59.173Z,99276.37
2019-03-08T18:43:10.567Z,99272.85
2019-03-08T18:45:35.142Z,99277.68
2019-03-08T18:47:43.474Z,99287.79
2019-03-08T18:49:51.779Z,99291.30
2019-03-08T18:52:10.562Z,99293.95
2019-03-08T18:54:33.629Z,99296.58
2019-03-08T18:56:58.225Z,99297.47
2019-03-08T18:59:07.991Z,99308.45
2019-03-08T19:01:28.407Z,99307.97
2019-03-08T19:03:34.841Z,99311.47
2019-03-08T19:05:58.958Z,99309.23
2019-03-08T19:08:07.396Z,99304.80
2019-03-08T19:10:18.393Z,99317.87
2019-03-08T19:12:44.595Z,99318.25
2019-03-08T19:15:09.120Z,99321.77
2019-03-08T19:17:33.447Z,99321.73
2019-03-08T19:19:51.694Z,99326.51
2019-03-08T19:22:02.969Z,99329.14
2019-03-08T19:24:13.955Z,99342.70
2019-03-08T19:26:22.234Z,99336.98
2019-03-08T19:28:28.684Z,99341.81
2019-03-08T19:30:42.682Z,99344.47
2019-03-08T19:32:50.987Z,99355.44
2019-03-08T19:35:11.529Z,99347.11
2019-03-08T19:37:23.735Z,99355.89
2019-03-08T19:39:36.648Z,99358.98
2019-03-08T19:41:47.543Z,99352.83
2019-03-08T19:43:58.791Z,99357.20
2019-03-08T19:46:07.078Z,99353.69
2019-03-08T19:48:16.496Z,99359.86
2019-03-08T19:50:40.620Z,99363.80
2019-03-08T19:52:57.746Z,99376.06
2019-03-08T19:55:12.683Z,99369.93
2019-03-08T19:57:21.903Z,99364.23
2019-03-08T19:59:33.133Z,99365.09
2019-03-08T20:01:44.115Z,99387.03
2019-03-08T20:03:53.610Z,99376.97
2019-03-08T20:06:07.881Z,99378.72
2019-03-08T20:08:16.198Z,99388.78
2019-03-08T20:10:32.279Z,99390.09
2019-03-08T20:12:49.278Z,99393.13
2019-03-08T20:14:57.616Z,99390.03
2019-03-08T20:17:09.915Z,99400.50
2019-03-08T20:19:21.744Z,99396.09
2019-03-08T20:21:31.380Z,99406.59
2019-03-08T20:23:42.693Z,99417.50
2019-03-08T20:26:06.815Z,99422.77
2019-03-08T20:28:24.145Z,99425.36
2019-03-08T20:30:33.032Z,99437.18
2019-03-08T20:32:53.574Z,99435.00
2019-03-08T20:35:04.621Z,99441.07
2019-03-08T20:37:14.528Z,99438.84
2019-03-08T20:39:23.807Z,99442.31
2019-03-08T20:41:30.267Z,99445.83
2019-03-08T20:43:39.551Z,99453.23
2019-03-08T20:45:53.822Z,99458.86
2019-03-08T20:48:00.566Z,99460.59
2019-03-08T20:50:14.113Z,99459.31
2019-03-08T20:52:22.365Z,99466.30
2019-03-08T20:54:29.058Z,99465.34
2019-03-08T20:56:38.457Z,99466.64
2019-03-08T20:58:45.289Z,99469.30
2019-03-08T21:00:52.047Z,99467.90
2019-03-08T21:02:58.774Z,99478.41
2019-03-08T21:05:06.991Z,99485.42
2019-03-08T21:07:13.749Z,99486.72
2019-03-08T21:09:20.476Z,99497.21
2019-03-08T21:11:27.307Z,99497.25
2019-03-08T21:13:34.244Z,99504.70
2019-03-08T21:15:40.966Z,99514.34
2019-03-08T21:17:47.692Z,99508.56
2019-03-08T21:19:54.441Z,99515.07
2019-03-08T21:22:01.171Z,99520.72
2019-03-08T21:24:07.919Z,99523.71
2019-03-08T21:26:14.668Z,99519.72
2019-03-08T21:28:21.324Z,99527.14
2019-03-08T21:30:28.055Z,99529.80
2019-03-08T21:32:35.596Z,99533.70
2019-03-08T21:34:42.242Z,99534.09
2019-03-08T21:36:48.903Z,99533.23
2019-03-08T21:38:55.659Z,99542.86
2019-03-08T21:41:02.312Z,99545.44
2019-03-08T21:43:10.032Z,99552.84
2019-03-08T21:45:19.946Z,99546.63
2019-03-08T21:47:27.464Z,99550.52
2019-03-08T21:49:35.719Z,99550.87
2019-03-08T21:51:42.405Z,99563.15
2019-03-08T21:53:49.139Z,99557.88
2019-03-08T21:55:55.796Z,99571.81
2019-03-08T21:58:04.118Z,99566.45
2019-03-08T22:00:20.852Z,99573.44
2019-03-08T22:02:27.722Z,99573.38
2019-03-08T22:04:36.328Z,99576.41
2019-03-08T22:06:44.616Z,99574.20
2019-03-08T22:08:52.902Z,99576.78
2019-03-08T22:11:06.046Z,99580.66
2019-03-08T22:13:12.770Z,99580.58
2019-03-08T22:15:19.534Z,99587.03
2019-03-08T22:17:26.210Z,99582.61
2019-03-08T22:19:34.330Z,99584.72
2019-03-08T22:21:41.108Z,99589.42
2019-03-08T22:23:47.788Z,99593.73
2019-03-08T22:25:54.505Z,99592.36
2019-03-08T22:28:01.167Z,99597.12
2019-03-08T22:30:16.142Z,99600.08
2019-03-08T22:32:22.860Z,99600.38
2019-03-08T22:34:29.512Z,99606.39
2019-03-08T22:36:36.194Z,99605.47
2019-03-08T22:38:42.938Z,99607.11
2019-03-08T22:40:49.576Z,99615.47
2019-03-08T22:42:56.327Z,99615.05
2019-03-08T22:45:06.889Z,99617.17
2019-03-08T22:47:13.545Z,99618.42
2019-03-08T22:49:20.256Z,99617.53
2019-03-08T22:51:26.975Z,99625.30
2019-03-08T22:53:33.632Z,99627.89
2019-03-08T22:55:40.657Z,99630.02
2019-03-08T22:57:47.422Z,99632.12
2019-03-08T22:59:54.132Z,99633.75
2019-03-08T23:02:07.577Z,99632.02
2019-03-08T23:04:14.298Z,99629.29
2019-03-08T23:06:21.019Z,99630.98
2019-03-08T23:08:27.701Z,99626.56
2019-03-08T23:10:34.365Z,99633.47
2019-03-08T23:12:41.197Z,99627.27
2019-03-08T23:14:47.888Z,99631.67
2019-03-08T23:16:54.556Z,99632.52
2019-03-08T23:19:01.208Z,99627.73
2019-03-08T23:21:07.971Z,99624.66
2019-03-08T23:23:14.695Z,99630.25
2019-03-08T23:25:21.361Z,99626.70
2019-03-08T23:27:32.514Z,99628.83
2019-03-08T23:29:41.089Z,99627.41
2019-03-08T23:31:58.168Z,99630.88
2019-03-08T23:34:04.855Z,99635.23
2019-03-08T23:36:11.509Z,99637.78
2019-03-08T23:38:18.248Z,99636.86
2019-03-08T23:40:24.922Z,99644.18
2019-03-08T23:42:31.663Z,99642.80
2019-03-08T23:44:38.322Z,99648.38
2019-03-08T23:46:45.010Z,99644.73
2019-03-08T23:48:51.654Z,99646.84
2019-03-08T23:50:58.376Z,99651.58
2019-03-08T23:53:05.061Z,99650.66
2019-03-08T23:55:12.483Z,99652.27
2019-03-08T23:57:19.210Z,99661.34
2019-03-08T23:59:25.894Z,99666.89
